sensor_id;sensor_type;location;lat;lon;timestamp;temperature;humidity
28863;DHT22;15994;51.796;13.006;2023-03-05T00:01:16;3.70;99.90
28863;DHT22;15994;51.796;13.006;2023-03-05T00:03:43;3.70;99.90
28863;DHT22;15994;51.796;13.006;2023-03-05T00:06:10;3.70;99.90
28863;DHT22;15994;51.796;13.006;2023-03-05T00:08:37;3.60;99.90
28863;DHT22;15994;51.796;13.006;2023-03-05T00:11:07;3.60;99.90
28863;DHT22;15994;51.796;13.006;2023-03-05T00:13:34;3.50;99.90
28863;DHT22;15994;51.796;13.006;2023-03-05T00:16:06;3.50;99.90
28863;DHT22;15994;51.796;13.006;2023-03-05T00:18:33;3.50;99.90
28863;DHT22;15994;51.796;13.006;2023-03-05T00:21:00;3.50;99.90
28863;DHT22;15994;51.796;13.006;2023-03-05T00:23:27;3.50;99.90
28863;DHT22;15994;51.796;13.006;2023-03-05T00:25:53;3.50;99.90
28863;DHT22;15994;51.796;13.006;2023-03-05T00:28:20;3.50;99.90
28863;DHT22;15994;51.796;13.006;2023-03-05T00:30:46;3.40;99.90
28863;DHT22;15994;51.796;13.006;2023-03-05T00:33:13;3.40;99.90
28863;DHT22;15994;51.796;13.006;2023-03-05T00:35:41;3.40;99.90
28863;DHT22;15994;51.796;13.006;2023-03-05T00:38:09;3.40;99.90
28863;DHT22;15994;51.796;13.006;2023-03-05T00:40:37;3.40;99.90
28863;DHT22;15994;51.796;13.006;2023-03-05T00:43:04;3.30;99.90
28863;DHT22;15994;51.796;13.006;2023-03-05T00:45:31;3.30;99.90
28863;DHT22;15994;51.796;13.006;2023-03-05T00:47:57;3.30;99.90
28863;DHT22;15994;51.796;13.006;2023-03-05T00:50:24;3.20;99.90
28863;DHT22;15994;51.796;13.006;2023-03-05T00:52:51;3.30;99.90
28863;DHT22;15994;51.796;13.006;2023-03-05T00:55:18;3.30;99.90
28863;DHT22;15994;51.796;13.006;2023-03-05T00:57:44;3.30;99.90
28863;DHT22;15994;51.796;13.006;2023-03-05T01:00:13;3.20;99.90
28863;DHT22;15994;51.796;13.006;2023-03-05T01:02:40;3.20;99.90
28863;DHT22;15994;51.796;13.006;2023-03-05T01:05:12;3.20;99.90
28863;DHT22;15994;51.796;13.006;2023-03-05T01:07:39;3.20;99.90
28863;DHT22;15994;51.796;13.006;2023-03-05T01:10:06;3.20;99.90
28863;DHT22;15994;51.796;13.006;2023-03-05T01:12:33;3.20;99.90
28863;DHT22;15994;51.796;13.006;2023-03-05T01:15:00;3.20;99.90
28863;DHT22;15994;51.796;13.006;2023-03-05T01:17:27;3.20;99.90
28863;DHT22;15994;51.796;13.006;2023-03-05T01:19:54;3.10;99.90
28863;DHT22;15994;51.796;13.006;2023-03-05T01:22:20;3.10;99.90
28863;DHT22;15994;51.796;13.006;2023-03-05T01:24:47;3.00;99.90
28863;DHT22;15994;51.796;13.006;2023-03-05T01:27:13;3.00;99.90
28863;DHT22;15994;51.796;13.006;2023-03-05T01:29:40;3.00;99.90
28863;DHT22;15994;51.796;13.006;2023-03-05T01:32:07;3.00;99.90
28863;DHT22;15994;51.796;13.006;2023-03-05T01:34:35;3.00;99.90
28863;DHT22;15994;51.796;13.006;2023-03-05T01:37:02;2.90;99.90
28863;DHT22;15994;51.796;13.006;2023-03-05T01:39:29;2.90;99.90
28863;DHT22;15994;51.796;13.006;2023-03-05T01:41:55;2.80;99.90
28863;DHT22;15994;51.796;13.006;2023-03-05T01:44:27;2.70;99.90
28863;DHT22;15994;51.796;13.006;2023-03-05T01:46:54;2.70;99.90
28863;DHT22;15994;51.796;13.006;2023-03-05T01:49:30;2.70;99.90
28863;DHT22;15994;51.796;13.006;2023-03-05T01:52:16;2.60;99.90
28863;DHT22;15994;51.796;13.006;2023-03-05T01:54:55;2.60;99.90
28863;DHT22;15994;51.796;13.006;2023-03-05T01:57:34;2.50;99.90
28863;DHT22;15994;51.796;13.006;2023-03-05T02:00:09;2.50;99.90
28863;DHT22;15994;51.796;13.006;2023-03-05T02:02:36;2.50;99.90
28863;DHT22;15994;51.796;13.006;2023-03-05T02:05:10;2.40;99.90
28863;DHT22;15994;51.796;13.006;2023-03-05T02:07:38;2.40;99.90
28863;DHT22;15994;51.796;13.006;2023-03-05T02:12:46;2.40;99.90
28863;DHT22;15994;51.796;13.006;2023-03-05T02:15:14;2.40;99.90
28863;DHT22;15994;51.796;13.006;2023-03-05T02:17:41;2.40;99.90
28863;DHT22;15994;51.796;13.006;2023-03-05T02:20:20;2.40;99.90
28863;DHT22;15994;51.796;13.006;2023-03-05T02:22:47;2.40;99.90
28863;DHT22;15994;51.796;13.006;2023-03-05T02:30:50;2.40;99.90
28863;DHT22;15994;51.796;13.006;2023-03-05T02:33:19;2.40;99.90
28863;DHT22;15994;51.796;13.006;2023-03-05T02:35:45;2.40;99.90
28863;DHT22;15994;51.796;13.006;2023-03-05T02:38:14;2.40;99.90
28863;DHT22;15994;51.796;13.006;2023-03-05T02:40:41;2.40;99.90
28863;DHT22;15994;51.796;13.006;2023-03-05T02:43:08;2.30;99.90
28863;DHT22;15994;51.796;13.006;2023-03-05T02:45:35;2.30;99.90
28863;DHT22;15994;51.796;13.006;2023-03-05T02:48:02;2.40;99.90
28863;DHT22;15994;51.796;13.006;2023-03-05T02:50:30;2.30;99.90
28863;DHT22;15994;51.796;13.006;2023-03-05T02:52:57;2.40;99.90
28863;DHT22;15994;51.796;13.006;2023-03-05T02:55:23;2.40;99.90
28863;DHT22;15994;51.796;13.006;2023-03-05T02:57:50;2.40;99.90
28863;DHT22;15994;51.796;13.006;2023-03-05T03:00:17;2.40;99.90
28863;DHT22;15994;51.796;13.006;2023-03-05T03:02:43;2.40;99.90
28863;DHT22;15994;51.796;13.006;2023-03-05T03:05:10;2.50;99.90
28863;DHT22;15994;51.796;13.006;2023-03-05T03:07:36;2.50;99.90
28863;DHT22;15994;51.796;13.006;2023-03-05T03:10:04;2.50;99.90
28863;DHT22;15994;51.796;13.006;2023-03-05T03:12:30;2.50;99.90
28863;DHT22;15994;51.796;13.006;2023-03-05T03:14:59;2.50;99.90
28863;DHT22;15994;51.796;13.006;2023-03-05T03:17:26;2.50;99.90
28863;DHT22;15994;51.796;13.006;2023-03-05T03:19:52;2.50;99.90
28863;DHT22;15994;51.796;13.006;2023-03-05T03:22:19;2.50;99.90
28863;DHT22;15994;51.796;13.006;2023-03-05T03:24:45;2.60;99.90
28863;DHT22;15994;51.796;13.006;2023-03-05T03:27:12;2.60;99.90
28863;DHT22;15994;51.796;13.006;2023-03-05T03:29:38;2.60;99.90
28863;DHT22;15994;51.796;13.006;2023-03-05T03:32:05;2.60;99.90
28863;DHT22;15994;51.796;13.006;2023-03-05T03:34:32;2.60;99.90
28863;DHT22;15994;51.796;13.006;2023-03-05T03:36:59;2.60;99.90
28863;DHT22;15994;51.796;13.006;2023-03-05T03:39:25;2.50;99.90
28863;DHT22;15994;51.796;13.006;2023-03-05T03:41:52;2.60;99.90
28863;DHT22;15994;51.796;13.006;2023-03-05T03:44:20;2.60;99.90
28863;DHT22;15994;51.796;13.006;2023-03-05T03:46:48;2.50;99.90
28863;DHT22;15994;51.796;13.006;2023-03-05T03:49:21;2.60;99.90
28863;DHT22;15994;51.796;13.006;2023-03-05T03:51:49;2.50;99.90
28863;DHT22;15994;51.796;13.006;2023-03-05T03:54:17;2.50;99.90
28863;DHT22;15994;51.796;13.006;2023-03-05T03:56:44;2.50;99.90
28863;DHT22;15994;51.796;13.006;2023-03-05T03:59:11;2.50;99.90
28863;DHT22;15994;51.796;13.006;2023-03-05T04:01:39;2.40;99.90
28863;DHT22;15994;51.796;13.006;2023-03-05T04:04:06;2.40;99.90
28863;DHT22;15994;51.796;13.006;2023-03-05T04:06:33;2.30;99.90
28863;DHT22;15994;51.796;13.006;2023-03-05T04:08:59;2.40;99.90
28863;DHT22;15994;51.796;13.006;2023-03-05T04:11:26;2.30;99.90
28863;DHT22;15994;51.796;13.006;2023-03-05T04:13:52;2.30;99.90
28863;DHT22;15994;51.796;13.006;2023-03-05T04:16:19;2.30;99.90
28863;DHT22;15994;51.796;13.006;2023-03-05T04:18:46;2.30;99.90
28863;DHT22;15994;51.796;13.006;2023-03-05T04:21:12;2.30;99.90
28863;DHT22;15994;51.796;13.006;2023-03-05T04:23:39;2.30;99.90
28863;DHT22;15994;51.796;13.006;2023-03-05T04:26:06;2.20;99.90
28863;DHT22;15994;51.796;13.006;2023-03-05T04:28:32;2.20;99.90
28863;DHT22;15994;51.796;13.006;2023-03-05T04:30:59;2.20;99.90
28863;DHT22;15994;51.796;13.006;2023-03-05T04:33:25;2.20;99.90
28863;DHT22;15994;51.796;13.006;2023-03-05T04:35:52;2.20;99.90
28863;DHT22;15994;51.796;13.006;2023-03-05T04:38:18;2.10;99.90
28863;DHT22;15994;51.796;13.006;2023-03-05T04:40:45;2.10;99.90
28863;DHT22;15994;51.796;13.006;2023-03-05T04:43:12;2.10;99.90
28863;DHT22;15994;51.796;13.006;2023-03-05T04:45:40;2.00;99.90
28863;DHT22;15994;51.796;13.006;2023-03-05T04:48:07;2.00;99.90
28863;DHT22;15994;51.796;13.006;2023-03-05T04:50:34;2.00;99.90
28863;DHT22;15994;51.796;13.006;2023-03-05T04:53:00;2.00;99.90
28863;DHT22;15994;51.796;13.006;2023-03-05T04:55:27;2.00;99.90
28863;DHT22;15994;51.796;13.006;2023-03-05T04:57:54;2.00;99.90
28863;DHT22;15994;51.796;13.006;2023-03-05T05:00:21;2.00;99.90
28863;DHT22;15994;51.796;13.006;2023-03-05T05:02:49;2.00;99.90
28863;DHT22;15994;51.796;13.006;2023-03-05T05:05:27;2.00;99.90
28863;DHT22;15994;51.796;13.006;2023-03-05T05:07:55;2.00;99.90
28863;DHT22;15994;51.796;13.006;2023-03-05T05:10:22;2.00;99.90
28863;DHT22;15994;51.796;13.006;2023-03-05T05:12:49;2.10;99.90
28863;DHT22;15994;51.796;13.006;2023-03-05T05:15:16;2.10;99.90
28863;DHT22;15994;51.796;13.006;2023-03-05T05:17:42;2.00;99.90
28863;DHT22;15994;51.796;13.006;2023-03-05T05:20:10;2.10;99.90
28863;DHT22;15994;51.796;13.006;2023-03-05T05:22:37;2.10;99.90
28863;DHT22;15994;51.796;13.006;2023-03-05T05:25:04;2.10;99.90
28863;DHT22;15994;51.796;13.006;2023-03-05T05:27:31;2.00;99.90
28863;DHT22;15994;51.796;13.006;2023-03-05T05:29:57;2.10;99.90
28863;DHT22;15994;51.796;13.006;2023-03-05T05:32:24;2.20;99.90
28863;DHT22;15994;51.796;13.006;2023-03-05T05:34:55;2.10;99.90
28863;DHT22;15994;51.796;13.006;2023-03-05T05:37:22;2.10;99.90
28863;DHT22;15994;51.796;13.006;2023-03-05T05:39:49;2.20;99.90
28863;DHT22;15994;51.796;13.006;2023-03-05T05:42:20;2.20;99.90
28863;DHT22;15994;51.796;13.006;2023-03-05T05:44:48;2.10;99.90
28863;DHT22;15994;51.796;13.006;2023-03-05T05:47:15;2.20;99.90
28863;DHT22;15994;51.796;13.006;2023-03-05T05:49:42;2.20;99.90
28863;DHT22;15994;51.796;13.006;2023-03-05T05:52:09;2.20;99.90
28863;DHT22;15994;51.796;13.006;2023-03-05T05:54:35;2.10;99.90
28863;DHT22;15994;51.796;13.006;2023-03-05T05:57:02;2.10;99.90
28863;DHT22;15994;51.796;13.006;2023-03-05T05:59:28;2.00;99.90
28863;DHT22;15994;51.796;13.006;2023-03-05T06:01:55;2.00;99.90
28863;DHT22;15994;51.796;13.006;2023-03-05T06:04:21;2.00;99.90
28863;DHT22;15994;51.796;13.006;2023-03-05T06:06:48;2.00;99.90
28863;DHT22;15994;51.796;13.006;2023-03-05T06:09:15;2.00;99.90
28863;DHT22;15994;51.796;13.006;2023-03-05T06:11:41;2.00;99.90
28863;DHT22;15994;51.796;13.006;2023-03-05T06:14:09;2.00;99.90
28863;DHT22;15994;51.796;13.006;2023-03-05T06:16:37;2.00;99.90
28863;DHT22;15994;51.796;13.006;2023-03-05T06:19:04;1.90;99.90
28863;DHT22;15994;51.796;13.006;2023-03-05T06:21:31;2.00;99.90
28863;DHT22;15994;51.796;13.006;2023-03-05T06:23:58;1.90;99.90
28863;DHT22;15994;51.796;13.006;2023-03-05T06:26:24;2.00;99.90
28863;DHT22;15994;51.796;13.006;2023-03-05T06:28:51;2.00;99.90
28863;DHT22;15994;51.796;13.006;2023-03-05T06:31:21;2.00;99.90
28863;DHT22;15994;51.796;13.006;2023-03-05T06:33:50;2.10;99.90
28863;DHT22;15994;51.796;13.006;2023-03-05T06:36:18;2.10;99.90
28863;DHT22;15994;51.796;13.006;2023-03-05T06:38:46;2.10;99.90
28863;DHT22;15994;51.796;13.006;2023-03-05T06:41:18;2.10;99.90
28863;DHT22;15994;51.796;13.006;2023-03-05T06:43:46;2.20;99.90
28863;DHT22;15994;51.796;13.006;2023-03-05T06:46:24;2.20;99.90
28863;DHT22;15994;51.796;13.006;2023-03-05T06:48:53;2.10;99.90
28863;DHT22;15994;51.796;13.006;2023-03-05T06:51:23;2.20;99.90
28863;DHT22;15994;51.796;13.006;2023-03-05T06:53:50;2.20;99.90
28863;DHT22;15994;51.796;13.006;2023-03-05T06:56:18;2.20;99.90
28863;DHT22;15994;51.796;13.006;2023-03-05T06:58:46;2.20;99.90
28863;DHT22;15994;51.796;13.006;2023-03-05T07:01:14;2.30;99.90
28863;DHT22;15994;51.796;13.006;2023-03-05T07:03:40;2.30;99.90
28863;DHT22;15994;51.796;13.006;2023-03-05T07:06:10;2.40;99.90
28863;DHT22;15994;51.796;13.006;2023-03-05T07:08:37;2.40;99.90
28863;DHT22;15994;51.796;13.006;2023-03-05T07:11:09;2.40;99.90
28863;DHT22;15994;51.796;13.006;2023-03-05T07:13:36;2.50;99.90
28863;DHT22;15994;51.796;13.006;2023-03-05T07:16:12;2.50;99.90
28863;DHT22;15994;51.796;13.006;2023-03-05T07:18:39;2.60;99.90
28863;DHT22;15994;51.796;13.006;2023-03-05T07:21:08;2.60;99.90
28863;DHT22;15994;51.796;13.006;2023-03-05T07:23:35;2.60;99.90
28863;DHT22;15994;51.796;13.006;2023-03-05T07:26:04;2.70;99.90
28863;DHT22;15994;51.796;13.006;2023-03-05T07:28:31;2.80;99.90
28863;DHT22;15994;51.796;13.006;2023-03-05T07:31:11;2.80;99.90
28863;DHT22;15994;51.796;13.006;2023-03-05T07:33:38;2.70;99.90
28863;DHT22;15994;51.796;13.006;2023-03-05T07:36:07;2.70;99.90
28863;DHT22;15994;51.796;13.006;2023-03-05T07:38:34;2.70;99.90
28863;DHT22;15994;51.796;13.006;2023-03-05T07:41:09;2.70;99.90
28863;DHT22;15994;51.796;13.006;2023-03-05T07:43:36;2.70;99.90
28863;DHT22;15994;51.796;13.006;2023-03-05T07:46:08;2.70;99.90
28863;DHT22;15994;51.796;13.006;2023-03-05T07:48:35;2.70;99.90
28863;DHT22;15994;51.796;13.006;2023-03-05T07:51:03;2.80;99.90
28863;DHT22;15994;51.796;13.006;2023-03-05T07:53:31;2.90;99.90
28863;DHT22;15994;51.796;13.006;2023-03-05T07:55:57;2.90;99.90
28863;DHT22;15994;51.796;13.006;2023-03-05T07:58:24;2.90;99.90
28863;DHT22;15994;51.796;13.006;2023-03-05T08:00:50;2.90;99.90
28863;DHT22;15994;51.796;13.006;2023-03-05T08:03:17;3.00;99.90
28863;DHT22;15994;51.796;13.006;2023-03-05T08:05:44;3.00;99.90
28863;DHT22;15994;51.796;13.006;2023-03-05T08:08:11;3.00;99.90
28863;DHT22;15994;51.796;13.006;2023-03-05T08:10:38;3.00;99.90
28863;DHT22;15994;51.796;13.006;2023-03-05T08:13:05;3.00;99.90
28863;DHT22;15994;51.796;13.006;2023-03-05T08:15:32;3.10;99.90
28863;DHT22;15994;51.796;13.006;2023-03-05T08:17:59;3.10;99.90
28863;DHT22;15994;51.796;13.006;2023-03-05T08:20:26;3.10;99.90
28863;DHT22;15994;51.796;13.006;2023-03-05T08:22:52;3.20;99.90
28863;DHT22;15994;51.796;13.006;2023-03-05T08:25:19;3.30;99.90
28863;DHT22;15994;51.796;13.006;2023-03-05T08:27:46;3.20;99.90
28863;DHT22;15994;51.796;13.006;2023-03-05T08:30:17;3.10;99.90
28863;DHT22;15994;51.796;13.006;2023-03-05T08:32:44;1.80;99.90
28863;DHT22;15994;51.796;13.006;2023-03-05T08:35:11;0.60;99.90
28863;DHT22;15994;51.796;13.006;2023-03-05T08:37:37;0.50;99.90
28863;DHT22;15994;51.796;13.006;2023-03-05T08:40:04;0.40;99.90
28863;DHT22;15994;51.796;13.006;2023-03-05T08:42:31;0.40;99.90
28863;DHT22;15994;51.796;13.006;2023-03-05T08:44:57;0.50;99.90
28863;DHT22;15994;51.796;13.006;2023-03-05T08:47:24;0.50;99.90
28863;DHT22;15994;51.796;13.006;2023-03-05T08:49:51;0.60;99.90
28863;DHT22;15994;51.796;13.006;2023-03-05T08:52:20;0.70;99.90
28863;DHT22;15994;51.796;13.006;2023-03-05T08:54:47;0.80;99.90
28863;DHT22;15994;51.796;13.006;2023-03-05T08:57:13;0.90;99.90
28863;DHT22;15994;51.796;13.006;2023-03-05T08:59:40;1.00;99.90
28863;DHT22;15994;51.796;13.006;2023-03-05T09:02:09;1.10;99.90
28863;DHT22;15994;51.796;13.006;2023-03-05T09:04:36;1.20;99.90
28863;DHT22;15994;51.796;13.006;2023-03-05T09:07:03;1.30;99.90
28863;DHT22;15994;51.796;13.006;2023-03-05T09:09:30;1.40;99.90
28863;DHT22;15994;51.796;13.006;2023-03-05T09:11:59;1.40;99.90
28863;DHT22;15994;51.796;13.006;2023-03-05T09:14:26;1.50;99.90
28863;DHT22;15994;51.796;13.006;2023-03-05T09:16:53;1.70;99.90
28863;DHT22;15994;51.796;13.006;2023-03-05T09:19:20;1.90;99.90
28863;DHT22;15994;51.796;13.006;2023-03-05T09:21:46;2.00;99.90
28863;DHT22;15994;51.796;13.006;2023-03-05T09:24:13;2.10;99.90
28863;DHT22;15994;51.796;13.006;2023-03-05T09:26:39;2.20;99.90
28863;DHT22;15994;51.796;13.006;2023-03-05T09:29:07;2.30;99.90
28863;DHT22;15994;51.796;13.006;2023-03-05T09:31:35;2.30;99.90
28863;DHT22;15994;51.796;13.006;2023-03-05T09:34:01;2.40;99.90
28863;DHT22;15994;51.796;13.006;2023-03-05T09:36:29;2.50;99.90
28863;DHT22;15994;51.796;13.006;2023-03-05T09:38:57;2.60;99.90
28863;DHT22;15994;51.796;13.006;2023-03-05T09:41:38;2.90;99.90
28863;DHT22;15994;51.796;13.006;2023-03-05T09:50:35;3.10;99.90
28863;DHT22;15994;51.796;13.006;2023-03-05T09:55:55;2.80;99.90
28863;DHT22;15994;51.796;13.006;2023-03-05T09:58:38;2.70;99.90
28863;DHT22;15994;51.796;13.006;2023-03-05T10:06:49;2.30;99.90
28863;DHT22;15994;51.796;13.006;2023-03-05T10:14:29;2.30;99.90
28863;DHT22;15994;51.796;13.006;2023-03-05T10:23:22;2.30;99.90
28863;DHT22;15994;51.796;13.006;2023-03-05T10:25:53;2.30;99.90
28863;DHT22;15994;51.796;13.006;2023-03-05T10:31:16;2.30;99.90
28863;DHT22;15994;51.796;13.006;2023-03-05T10:39:42;2.00;99.90
28863;DHT22;15994;51.796;13.006;2023-03-05T10:42:21;1.90;99.90
28863;DHT22;15994;51.796;13.006;2023-03-05T10:44:56;1.90;99.90
28863;DHT22;15994;51.796;13.006;2023-03-05T10:47:30;1.80;99.90
28863;DHT22;15994;51.796;13.006;2023-03-05T10:49:59;1.90;99.90
28863;DHT22;15994;51.796;13.006;2023-03-05T10:52:36;1.80;99.90
28863;DHT22;15994;51.796;13.006;2023-03-05T10:55:20;1.70;99.90
28863;DHT22;15994;51.796;13.006;2023-03-05T10:57:47;1.70;99.90
28863;DHT22;15994;51.796;13.006;2023-03-05T11:00:22;1.50;99.90
28863;DHT22;15994;51.796;13.006;2023-03-05T11:03:00;1.60;99.90
28863;DHT22;15994;51.796;13.006;2023-03-05T11:05:50;1.70;99.90
28863;DHT22;15994;51.796;13.006;2023-03-05T11:08:36;1.80;99.90
28863;DHT22;15994;51.796;13.006;2023-03-05T11:11:07;1.90;99.90
28863;DHT22;15994;51.796;13.006;2023-03-05T11:13:57;2.20;99.90
28863;DHT22;15994;51.796;13.006;2023-03-05T11:16:33;2.60;99.90
28863;DHT22;15994;51.796;13.006;2023-03-05T11:19:23;2.90;99.90
28863;DHT22;15994;51.796;13.006;2023-03-05T11:24:36;2.80;99.90
28863;DHT22;15994;51.796;13.006;2023-03-05T11:27:37;2.70;99.90
28863;DHT22;15994;51.796;13.006;2023-03-05T11:30:21;2.80;99.90
28863;DHT22;15994;51.796;13.006;2023-03-05T11:32:54;3.00;99.90
28863;DHT22;15994;51.796;13.006;2023-03-05T11:35:34;3.00;99.90
28863;DHT22;15994;51.796;13.006;2023-03-05T11:38:10;3.20;99.90
28863;DHT22;15994;51.796;13.006;2023-03-05T11:40:40;3.40;99.90
28863;DHT22;15994;51.796;13.006;2023-03-05T11:43:15;3.50;99.90
28863;DHT22;15994;51.796;13.006;2023-03-05T11:45:42;3.40;99.90
28863;DHT22;15994;51.796;13.006;2023-03-05T11:48:22;3.50;99.90
28863;DHT22;15994;51.796;13.006;2023-03-05T11:50:59;3.60;99.90
28863;DHT22;15994;51.796;13.006;2023-03-05T11:53:29;3.60;99.90
28863;DHT22;15994;51.796;13.006;2023-03-05T11:56:20;3.40;99.90
28863;DHT22;15994;51.796;13.006;2023-03-05T12:01:29;3.40;99.90
28863;DHT22;15994;51.796;13.006;2023-03-05T12:03:57;3.50;99.90
28863;DHT22;15994;51.796;13.006;2023-03-05T12:06:47;3.60;99.90
28863;DHT22;15994;51.796;13.006;2023-03-05T12:09:26;3.60;99.90
28863;DHT22;15994;51.796;13.006;2023-03-05T12:23:20;3.50;99.90
28863;DHT22;15994;51.796;13.006;2023-03-05T12:25:52;3.50;99.90
28863;DHT22;15994;51.796;13.006;2023-03-05T12:31:02;3.50;99.90
28863;DHT22;15994;51.796;13.006;2023-03-05T12:33:37;3.60;99.90
28863;DHT22;15994;51.796;13.006;2023-03-05T12:38:43;3.70;99.90
28863;DHT22;15994;51.796;13.006;2023-03-05T12:41:34;3.70;99.90
28863;DHT22;15994;51.796;13.006;2023-03-05T12:46:39;4.00;99.90
28863;DHT22;15994;51.796;13.006;2023-03-05T12:51:47;4.20;99.90
28863;DHT22;15994;51.796;13.006;2023-03-05T12:57:00;4.20;99.90
28863;DHT22;15994;51.796;13.006;2023-03-05T12:59:49;4.30;99.90
28863;DHT22;15994;51.796;13.006;2023-03-05T13:02:38;4.30;99.90
28863;DHT22;15994;51.796;13.006;2023-03-05T13:05:33;4.30;99.90
28863;DHT22;15994;51.796;13.006;2023-03-05T13:08:19;4.30;99.90
28863;DHT22;15994;51.796;13.006;2023-03-05T13:10:57;4.30;99.90
28863;DHT22;15994;51.796;13.006;2023-03-05T13:13:26;4.30;99.90
28863;DHT22;15994;51.796;13.006;2023-03-05T13:15:53;4.30;99.90
28863;DHT22;15994;51.796;13.006;2023-03-05T13:18:23;4.30;99.90
28863;DHT22;15994;51.796;13.006;2023-03-05T13:21:10;4.10;99.90
28863;DHT22;15994;51.796;13.006;2023-03-05T13:23:51;4.10;99.90
28863;DHT22;15994;51.796;13.006;2023-03-05T13:26:24;4.20;99.90
28863;DHT22;15994;51.796;13.006;2023-03-05T13:31:46;4.10;99.90
28863;DHT22;15994;51.796;13.006;2023-03-05T13:34:23;4.10;99.90
28863;DHT22;15994;51.796;13.006;2023-03-05T13:36:53;4.10;99.90
28863;DHT22;15994;51.796;13.006;2023-03-05T13:39:24;4.20;99.90
28863;DHT22;15994;51.796;13.006;2023-03-05T13:42:03;4.20;99.90
28863;DHT22;15994;51.796;13.006;2023-03-05T13:44:31;4.30;99.90
28863;DHT22;15994;51.796;13.006;2023-03-05T13:47:07;4.40;99.90
28863;DHT22;15994;51.796;13.006;2023-03-05T13:49:33;4.60;99.90
28863;DHT22;15994;51.796;13.006;2023-03-05T13:52:00;4.90;99.90
28863;DHT22;15994;51.796;13.006;2023-03-05T13:54:28;5.10;99.90
28863;DHT22;15994;51.796;13.006;2023-03-05T13:57:01;5.00;99.90
28863;DHT22;15994;51.796;13.006;2023-03-05T13:59:30;5.10;99.90
28863;DHT22;15994;51.796;13.006;2023-03-05T14:02:03;5.10;99.90
28863;DHT22;15994;51.796;13.006;2023-03-05T14:04:40;5.10;99.90
28863;DHT22;15994;51.796;13.006;2023-03-05T14:07:28;5.00;99.90
28863;DHT22;15994;51.796;13.006;2023-03-05T14:09:55;4.90;99.90
28863;DHT22;15994;51.796;13.006;2023-03-05T14:12:27;4.70;99.90
28863;DHT22;15994;51.796;13.006;2023-03-05T14:14:56;4.70;99.90
28863;DHT22;15994;51.796;13.006;2023-03-05T14:20:20;4.50;99.90
28863;DHT22;15994;51.796;13.006;2023-03-05T14:22:48;4.60;99.90
28863;DHT22;15994;51.796;13.006;2023-03-05T14:25:35;4.70;99.90
28863;DHT22;15994;51.796;13.006;2023-03-05T14:28:25;4.80;99.90
28863;DHT22;15994;51.796;13.006;2023-03-05T14:30:54;4.90;99.90
28863;DHT22;15994;51.796;13.006;2023-03-05T14:33:22;5.00;99.90
28863;DHT22;15994;51.796;13.006;2023-03-05T14:35:51;5.10;99.90
28863;DHT22;15994;51.796;13.006;2023-03-05T14:38:21;4.90;99.90
28863;DHT22;15994;51.796;13.006;2023-03-05T14:40:49;4.80;99.90
28863;DHT22;15994;51.796;13.006;2023-03-05T14:43:16;4.80;99.90
28863;DHT22;15994;51.796;13.006;2023-03-05T14:45:42;4.80;99.90
28863;DHT22;15994;51.796;13.006;2023-03-05T14:48:12;4.80;99.90
28863;DHT22;15994;51.796;13.006;2023-03-05T14:50:42;4.70;99.90
28863;DHT22;15994;51.796;13.006;2023-03-05T14:53:24;4.60;99.90
28863;DHT22;15994;51.796;13.006;2023-03-05T14:55:54;4.50;99.90
28863;DHT22;15994;51.796;13.006;2023-03-05T14:58:27;4.60;99.90
28863;DHT22;15994;51.796;13.006;2023-03-05T15:00:56;4.50;99.90
28863;DHT22;15994;51.796;13.006;2023-03-05T15:03:24;4.50;99.90
28863;DHT22;15994;51.796;13.006;2023-03-05T15:05:54;4.40;99.90
28863;DHT22;15994;51.796;13.006;2023-03-05T15:08:27;4.40;99.90
28863;DHT22;15994;51.796;13.006;2023-03-05T15:10:54;4.50;99.90
28863;DHT22;15994;51.796;13.006;2023-03-05T15:13:21;4.40;99.90
28863;DHT22;15994;51.796;13.006;2023-03-05T15:15:48;4.40;99.90
28863;DHT22;15994;51.796;13.006;2023-03-05T15:18:17;4.30;99.90
28863;DHT22;15994;51.796;13.006;2023-03-05T15:20:45;4.30;99.90
28863;DHT22;15994;51.796;13.006;2023-03-05T15:23:13;4.40;99.90
28863;DHT22;15994;51.796;13.006;2023-03-05T15:25:40;4.20;99.90
28863;DHT22;15994;51.796;13.006;2023-03-05T15:28:07;4.20;99.90
28863;DHT22;15994;51.796;13.006;2023-03-05T15:30:39;4.30;99.90
28863;DHT22;15994;51.796;13.006;2023-03-05T15:33:10;4.20;99.90
28863;DHT22;15994;51.796;13.006;2023-03-05T15:35:37;4.20;99.90
28863;DHT22;15994;51.796;13.006;2023-03-05T15:38:04;4.20;99.90
28863;DHT22;15994;51.796;13.006;2023-03-05T15:40:31;4.30;99.90
28863;DHT22;15994;51.796;13.006;2023-03-05T15:42:58;4.30;99.90
28863;DHT22;15994;51.796;13.006;2023-03-05T15:45:26;4.30;99.90
28863;DHT22;15994;51.796;13.006;2023-03-05T15:47:55;4.30;99.90
28863;DHT22;15994;51.796;13.006;2023-03-05T15:50:22;4.30;99.90
28863;DHT22;15994;51.796;13.006;2023-03-05T15:52:49;4.40;99.90
28863;DHT22;15994;51.796;13.006;2023-03-05T15:55:15;4.40;99.90
28863;DHT22;15994;51.796;13.006;2023-03-05T15:57:45;4.30;99.90
28863;DHT22;15994;51.796;13.006;2023-03-05T16:00:13;4.30;99.90
28863;DHT22;15994;51.796;13.006;2023-03-05T16:02:40;4.30;99.90
28863;DHT22;15994;51.796;13.006;2023-03-05T16:05:07;4.30;99.90
28863;DHT22;15994;51.796;13.006;2023-03-05T16:07:36;4.30;99.90
28863;DHT22;15994;51.796;13.006;2023-03-05T16:10:04;4.20;99.90
28863;DHT22;15994;51.796;13.006;2023-03-05T16:12:35;4.10;99.90
28863;DHT22;15994;51.796;13.006;2023-03-05T16:15:07;4.10;99.90
28863;DHT22;15994;51.796;13.006;2023-03-05T16:17:34;3.90;99.90
28863;DHT22;15994;51.796;13.006;2023-03-05T16:20:00;3.90;99.90
28863;DHT22;15994;51.796;13.006;2023-03-05T16:22:27;3.80;99.90
28863;DHT22;15994;51.796;13.006;2023-03-05T16:24:54;3.80;99.90
28863;DHT22;15994;51.796;13.006;2023-03-05T16:27:22;3.80;99.90
28863;DHT22;15994;51.796;13.006;2023-03-05T16:29:49;3.70;99.90
28863;DHT22;15994;51.796;13.006;2023-03-05T16:32:15;3.70;99.90
28863;DHT22;15994;51.796;13.006;2023-03-05T16:34:42;3.70;99.90
28863;DHT22;15994;51.796;13.006;2023-03-05T16:37:09;3.70;99.90
28863;DHT22;15994;51.796;13.006;2023-03-05T16:39:35;3.70;99.90
28863;DHT22;15994;51.796;13.006;2023-03-05T16:42:02;3.70;99.90
28863;DHT22;15994;51.796;13.006;2023-03-05T16:44:29;3.70;99.90
28863;DHT22;15994;51.796;13.006;2023-03-05T16:46:56;3.70;99.90
28863;DHT22;15994;51.796;13.006;2023-03-05T16:49:23;3.70;99.90
28863;DHT22;15994;51.796;13.006;2023-03-05T16:51:50;3.70;99.90
28863;DHT22;15994;51.796;13.006;2023-03-05T16:54:16;3.60;99.90
28863;DHT22;15994;51.796;13.006;2023-03-05T16:56:43;3.60;99.90
28863;DHT22;15994;51.796;13.006;2023-03-05T16:59:09;3.50;99.90
28863;DHT22;15994;51.796;13.006;2023-03-05T17:01:36;3.50;99.90
28863;DHT22;15994;51.796;13.006;2023-03-05T17:04:03;3.50;99.90